Time;durP1;ratioP1;P1;durP2;ratioP2;P2;SDS_P1;SDS_P2;PMS_P1;PMS_P2;Temp;Humidity;BMP_temperature;BMP_pressure;BME280_temperature;BME280_humidity;BME280_pressure;Samples;Min_cycle;Max_cycle;Signal;HPM_P1;HPM_P2
2022/10/09 00:01:43;;;;;;;3.37;2.47;;;10.10;99.90;;;;;;5020286;28;20488;-68
2022/10/09 00:04:10;;;;;;;3.90;3.00;;;10.10;99.90;;;;;;5020271;28;20453;-68
2022/10/09 00:06:38;;;;;;;4.30;2.23;;;10.00;99.90;;;;;;5020352;28;20516;-68
2022/10/09 00:09:05;;;;;;;7.90;3.60;;;10.00;99.90;;;;;;5020428;28;20476;-68
2022/10/09 00:11:33;;;;;;;8.30;2.80;;;10.00;99.90;;;;;;5018921;28;20469;-68
2022/10/09 00:14:00;;;;;;;5.07;2.93;;;9.90;99.90;;;;;;5019656;28;20457;-68
2022/10/09 00:16:29;;;;;;;5.13;2.73;;;9.90;99.90;;;;;;5019603;28;20457;-68
2022/10/09 00:18:57;;;;;;;7.43;3.00;;;9.90;99.90;;;;;;5020280;28;20460;-68
2022/10/09 00:21:25;;;;;;;6.60;2.87;;;9.90;99.90;;;;;;5020965;28;20786;-67
2022/10/09 00:23:54;;;;;;;6.63;2.80;;;9.90;99.90;;;;;;5020361;28;20461;-67
2022/10/09 00:26:21;;;;;;;4.73;2.60;;;9.90;99.90;;;;;;5021188;28;20481;-68
2022/10/09 00:28:48;;;;;;;4.20;2.30;;;9.90;99.90;;;;;;5020376;28;20504;-68
2022/10/09 00:31:16;;;;;;;5.03;2.40;;;9.80;99.90;;;;;;5020435;28;20457;-67
2022/10/09 00:33:44;;;;;;;7.17;2.77;;;9.80;99.90;;;;;;5020959;28;20493;-67
2022/10/09 00:36:13;;;;;;;4.83;3.07;;;9.80;99.90;;;;;;5020996;28;20496;-67
2022/10/09 00:38:41;;;;;;;8.50;2.73;;;9.80;99.90;;;;;;5020895;28;20489;-67
2022/10/09 00:41:08;;;;;;;6.77;2.77;;;9.80;99.90;;;;;;5019043;28;20515;-67
2022/10/09 00:43:41;;;;;;;4.90;2.67;;;9.80;99.90;;;;;;5019018;28;20465;-67
2022/10/09 00:46:23;;;;;;;6.13;2.50;;;9.80;99.90;;;;;;5018344;28;20495;-67
2022/10/09 00:49:01;;;;;;;5.70;2.70;;;9.80;99.90;;;;;;5021732;28;20508;-67
2022/10/09 00:51:30;;;;;;;5.10;2.60;;;9.80;99.90;;;;;;5019122;28;20861;-69
2022/10/09 00:53:57;;;;;;;8.93;2.67;;;9.80;99.90;;;;;;5018599;28;20491;-67
2022/10/09 00:56:25;;;;;;;4.50;2.73;;;9.70;99.90;;;;;;5018785;28;20523;-68
2022/10/09 00:58:56;;;;;;;6.30;3.03;;;9.70;99.90;;;;;;5019460;28;20526;-68
2022/10/09 01:01:23;;;;;;;5.83;2.67;;;9.70;99.90;;;;;;5019529;28;20496;-68
2022/10/09 01:03:50;;;;;;;5.10;2.90;;;9.70;99.90;;;;;;5019831;28;20472;-68
2022/10/09 01:06:26;;;;;;;3.57;2.77;;;9.60;99.90;;;;;;5020195;28;20476;-68
2022/10/09 01:09:01;;;;;;;5.03;2.97;;;9.60;99.90;;;;;;5018922;28;20437;-68
2022/10/09 01:11:36;;;;;;;3.03;2.10;;;9.50;99.90;;;;;;5019559;28;20445;-68
2022/10/09 01:14:08;;;;;;;4.80;2.80;;;9.50;99.90;;;;;;5018320;28;20472;-67
2022/10/09 01:16:41;;;;;;;8.03;2.70;;;9.50;99.90;;;;;;5018474;28;20473;-67
2022/10/09 01:19:29;;;;;;;3.67;2.60;;;9.50;99.90;;;;;;5020068;28;20481;-67
2022/10/09 01:22:08;;;;;;;8.87;2.50;;;9.50;99.90;;;;;;5017346;28;20476;-68
2022/10/09 01:24:38;;;;;;;4.97;3.13;;;9.50;99.90;;;;;;5017835;28;20523;-67
2022/10/09 01:27:12;;;;;;;4.37;2.30;;;9.50;99.90;;;;;;5018938;28;20528;-67
2022/10/09 01:29:43;;;;;;;6.40;2.63;;;9.40;99.90;;;;;;5018597;28;20445;-69
2022/10/09 01:32:14;;;;;;;7.10;2.90;;;9.40;99.90;;;;;;5017289;28;20544;-67
2022/10/09 01:34:44;;;;;;;7.77;2.77;;;9.40;99.90;;;;;;5018226;28;20499;-67
2022/10/09 01:37:13;;;;;;;6.37;4.00;;;9.40;99.90;;;;;;5017533;28;20553;-68
2022/10/09 01:39:41;;;;;;;12.17;2.70;;;9.40;99.90;;;;;;5017677;28;20453;-69
2022/10/09 01:42:11;;;;;;;6.27;3.20;;;9.40;99.90;;;;;;5018348;28;20460;-67
2022/10/09 01:44:38;;;;;;;8.20;3.37;;;9.40;99.90;;;;;;5017923;28;20495;-68
2022/10/09 01:47:06;;;;;;;5.00;2.90;;;9.40;99.90;;;;;;5018822;28;20477;-68
2022/10/09 01:49:40;;;;;;;9.33;2.90;;;9.40;99.90;;;;;;5018678;28;20453;-67
2022/10/09 01:52:18;;;;;;;7.07;2.80;;;9.40;99.90;;;;;;5023004;28;20493;-67
2022/10/09 01:54:58;;;;;;;5.83;2.70;;;9.40;99.90;;;;;;5020517;28;20882;-67
2022/10/09 01:57:33;;;;;;;7.77;3.03;;;9.40;99.90;;;;;;5018577;28;20508;-67
2022/10/09 02:00:04;;;;;;;10.87;2.90;;;9.30;99.90;;;;;;5015947;28;20475;-67
2022/10/09 02:02:31;;;;;;;4.60;2.50;;;9.30;99.90;;;;;;5016320;28;20451;-67
2022/10/09 02:04:58;;;;;;;10.47;2.40;;;9.30;99.90;;;;;;5015786;28;20956;-68
2022/10/09 02:07:26;;;;;;;6.03;2.83;;;9.30;99.90;;;;;;5016188;28;20543;-67
2022/10/09 02:09:54;;;;;;;6.70;2.83;;;9.30;99.90;;;;;;5016210;28;20461;-69
2022/10/09 02:12:25;;;;;;;10.50;3.13;;;9.30;99.90;;;;;;5015835;28;20497;-68
2022/10/09 02:14:53;;;;;;;8.50;3.03;;;9.30;99.90;;;;;;5016516;28;20441;-68
2022/10/09 02:17:26;;;;;;;8.50;3.03;;;9.30;99.90;;;;;;5017480;28;20461;-68
2022/10/09 02:19:59;;;;;;;6.30;2.83;;;9.30;99.90;;;;;;5016327;28;20471;-67
2022/10/09 02:22:29;;;;;;;9.00;3.10;;;9.30;99.90;;;;;;5016339;28;20480;-67
2022/10/09 02:24:59;;;;;;;8.57;2.87;;;9.30;99.90;;;;;;5016665;28;20526;-67
2022/10/09 02:27:27;;;;;;;10.30;3.30;;;9.30;99.90;;;;;;5015561;28;20555;-67
2022/10/09 02:29:56;;;;;;;6.30;3.00;;;9.20;99.90;;;;;;5016501;28;20465;-67
2022/10/09 02:32:23;;;;;;;8.00;2.40;;;9.30;99.90;;;;;;5017697;28;20484;-67
2022/10/09 02:34:51;;;;;;;5.13;2.73;;;9.30;99.90;;;;;;5019925;28;20979;-67
2022/10/09 02:37:18;;;;;;;5.70;3.83;;;9.30;99.90;;;;;;5020542;28;20523;-67
2022/10/09 02:39:45;;;;;;;4.80;2.60;;;9.20;99.90;;;;;;5022451;28;20456;-67
2022/10/09 02:42:12;;;;;;;5.40;2.03;;;9.20;99.90;;;;;;5021989;28;20548;-67
2022/10/09 02:44:39;;;;;;;7.20;2.83;;;9.20;99.90;;;;;;5021183;28;20456;-67
2022/10/09 02:47:07;;;;;;;6.63;2.73;;;9.20;99.90;;;;;;5021462;28;20503;-67
2022/10/09 02:49:34;;;;;;;4.60;2.27;;;9.20;99.90;;;;;;5022071;28;20480;-67
2022/10/09 02:52:01;;;;;;;7.20;3.27;;;9.20;99.90;;;;;;5023580;28;20461;-67
2022/10/09 02:54:28;;;;;;;5.00;2.80;;;9.20;99.90;;;;;;5024146;28;20453;-67
2022/10/09 02:56:56;;;;;;;8.00;3.00;;;9.20;99.90;;;;;;5021926;28;20473;-67
2022/10/09 02:59:23;;;;;;;6.23;2.90;;;9.20;99.90;;;;;;5022105;28;20457;-66
2022/10/09 03:01:50;;;;;;;4.70;2.33;;;9.20;99.90;;;;;;5022111;28;20460;-68
2022/10/09 03:04:18;;;;;;;4.70;3.50;;;9.10;99.90;;;;;;5021173;28;20457;-67
2022/10/09 03:06:45;;;;;;;4.23;2.77;;;9.10;99.90;;;;;;5020980;28;20476;-66
2022/10/09 03:09:12;;;;;;;6.63;2.53;;;9.10;99.90;;;;;;5020713;28;20465;-67
2022/10/09 03:11:39;;;;;;;5.70;2.30;;;9.10;99.90;;;;;;5022349;28;20844;-67
2022/10/09 03:14:06;;;;;;;7.20;3.07;;;9.10;99.90;;;;;;5021878;28;20461;-67
2022/10/09 03:16:33;;;;;;;7.53;3.40;;;9.00;99.90;;;;;;5022975;28;20484;-67
2022/10/09 03:19:00;;;;;;;9.43;3.10;;;9.00;99.90;;;;;;5024434;28;20500;-67
2022/10/09 03:21:28;;;;;;;9.57;3.00;;;9.00;99.90;;;;;;5022479;28;20832;-67
2022/10/09 03:23:56;;;;;;;7.33;3.20;;;9.00;99.90;;;;;;5023689;28;20801;-67
2022/10/09 03:26:25;;;;;;;6.47;2.80;;;9.00;99.90;;;;;;5019633;28;20997;-67
2022/10/09 03:28:54;;;;;;;9.50;2.90;;;9.00;99.90;;;;;;5019685;28;21007;-67
2022/10/09 03:31:22;;;;;;;6.30;3.00;;;8.90;99.90;;;;;;5019334;28;20825;-67
2022/10/09 03:33:49;;;;;;;6.50;3.50;;;8.90;99.90;;;;;;5019118;28;20983;-67
2022/10/09 03:36:16;;;;;;;8.57;3.20;;;8.90;99.90;;;;;;5018879;28;20536;-67
2022/10/09 03:38:44;;;;;;;9.03;2.90;;;8.90;99.90;;;;;;5019564;28;20852;-68
2022/10/09 03:41:11;;;;;;;6.93;2.83;;;8.90;99.90;;;;;;5019126;28;20461;-67
2022/10/09 03:43:38;;;;;;;5.87;3.20;;;8.90;99.90;;;;;;5019364;28;20461;-68
2022/10/09 03:46:07;;;;;;;8.10;2.77;;;8.90;99.90;;;;;;5020025;28;20522;-68
2022/10/09 03:48:34;;;;;;;5.80;2.90;;;8.90;99.90;;;;;;5020628;28;20490;-68
2022/10/09 03:51:01;;;;;;;10.13;2.90;;;8.90;99.90;;;;;;5020393;28;20460;-68
2022/10/09 03:53:28;;;;;;;6.00;2.57;;;8.90;99.90;;;;;;5020958;28;20475;-68
2022/10/09 03:55:56;;;;;;;9.90;2.70;;;8.90;99.90;;;;;;5021289;28;20519;-68
2022/10/09 03:58:23;;;;;;;4.97;2.83;;;8.90;99.90;;;;;;5020802;28;20457;-68
2022/10/09 04:00:51;;;;;;;6.70;3.07;;;8.90;99.90;;;;;;5020887;28;20514;-68
2022/10/09 04:03:18;;;;;;;5.27;2.83;;;8.90;99.90;;;;;;5020665;28;20925;-67
2022/10/09 04:05:45;;;;;;;5.80;3.00;;;8.90;99.90;;;;;;5020505;28;20457;-67
2022/10/09 04:08:12;;;;;;;7.83;3.17;;;8.90;99.90;;;;;;5018749;28;20580;-67
2022/10/09 04:10:39;;;;;;;7.20;2.90;;;8.80;99.90;;;;;;5020649;28;20536;-67
2022/10/09 04:13:07;;;;;;;4.97;2.60;;;8.80;99.90;;;;;;5019175;28;20920;-67
2022/10/09 04:15:35;;;;;;;6.13;2.90;;;8.80;99.90;;;;;;5019728;28;20535;-67
2022/10/09 04:18:02;;;;;;;5.43;2.80;;;8.80;99.90;;;;;;5019335;28;20767;-67
2022/10/09 04:20:29;;;;;;;6.77;3.00;;;8.70;99.90;;;;;;5020590;28;20456;-67
2022/10/09 04:22:56;;;;;;;5.83;3.13;;;8.70;99.90;;;;;;5020716;28;20485;-67
2022/10/09 04:25:23;;;;;;;5.57;3.23;;;8.70;99.90;;;;;;5023704;28;20485;-68
2022/10/09 04:27:50;;;;;;;5.00;2.77;;;8.70;99.90;;;;;;5023058;28;20538;-68
2022/10/09 04:30:18;;;;;;;10.80;2.87;;;8.70;99.90;;;;;;5021911;28;20504;-68
2022/10/09 04:32:46;;;;;;;7.67;3.10;;;8.70;99.90;;;;;;5023076;28;20496;-68
2022/10/09 04:35:13;;;;;;;5.70;3.80;;;8.70;99.90;;;;;;5023441;28;20816;-67
2022/10/09 04:37:40;;;;;;;5.63;3.00;;;8.80;99.90;;;;;;5021750;28;20481;-68
2022/10/09 04:40:08;;;;;;;3.33;2.77;;;8.70;99.90;;;;;;5023729;28;20933;-68
2022/10/09 04:42:35;;;;;;;7.80;2.80;;;8.70;99.90;;;;;;5023841;28;20559;-67
2022/10/09 04:45:02;;;;;;;4.10;2.47;;;8.70;99.90;;;;;;5024030;28;20453;-68
2022/10/09 04:47:30;;;;;;;4.80;2.93;;;8.70;99.90;;;;;;5024282;28;20535;-68
2022/10/09 04:49:57;;;;;;;5.83;2.53;;;8.70;99.90;;;;;;5024620;28;20468;-68
2022/10/09 04:52:24;;;;;;;10.83;2.83;;;8.70;99.90;;;;;;5023726;28;20483;-68
2022/10/09 04:54:51;;;;;;;8.57;4.13;;;8.80;99.90;;;;;;5023999;28;20461;-67
2022/10/09 04:57:18;;;;;;;10.30;3.40;;;8.80;99.90;;;;;;5021578;28;20527;-67
2022/10/09 04:59:45;;;;;;;7.40;3.13;;;8.80;99.90;;;;;;5022386;28;20460;-68
2022/10/09 05:02:12;;;;;;;7.23;2.93;;;8.80;99.90;;;;;;5021955;28;20500;-68
2022/10/09 05:04:40;;;;;;;5.97;2.73;;;8.80;99.90;;;;;;5022654;28;20492;-68
2022/10/09 05:07:07;;;;;;;5.20;3.17;;;8.80;99.90;;;;;;5023468;28;20499;-68
2022/10/09 05:09:34;;;;;;;7.97;3.00;;;8.70;99.90;;;;;;5023516;28;20523;-67
2022/10/09 05:12:01;;;;;;;5.10;2.87;;;8.70;99.90;;;;;;5022820;28;20487;-67
2022/10/09 05:14:28;;;;;;;7.30;3.20;;;8.70;99.90;;;;;;5024662;28;20491;-67
2022/10/09 05:16:56;;;;;;;6.70;3.30;;;8.70;99.90;;;;;;5025519;28;20784;-67
2022/10/09 05:19:23;;;;;;;6.87;3.10;;;8.70;99.90;;;;;;5024807;28;20483;-67
2022/10/09 05:21:51;;;;;;;4.87;3.20;;;8.70;99.90;;;;;;5024587;28;20531;-68
2022/10/09 05:24:18;;;;;;;10.87;4.00;;;8.70;99.90;;;;;;5024701;28;20519;-68
2022/10/09 05:26:45;;;;;;;6.17;3.27;;;8.70;99.90;;;;;;5025629;28;20499;-68
2022/10/09 05:29:12;;;;;;;4.50;2.93;;;8.60;99.90;;;;;;5025493;28;20481;-69
2022/10/09 05:31:39;;;;;;;4.10;2.60;;;8.60;99.90;;;;;;5021795;28;20492;-68
2022/10/09 05:34:06;;;;;;;9.93;2.93;;;8.60;99.90;;;;;;5022738;28;20481;-69
2022/10/09 05:36:32;;;;;;;8.10;3.20;;;8.60;99.90;;;;;;5024380;28;20458;-69
2022/10/09 05:39:01;;;;;;;8.20;3.33;;;8.70;99.90;;;;;;5025436;28;20449;-69
2022/10/09 05:41:29;;;;;;;5.50;2.90;;;8.70;99.90;;;;;;5026218;28;20487;-69
2022/10/09 05:44:01;;;;;;;8.20;3.23;;;8.70;99.90;;;;;;5025787;28;20547;-69
2022/10/09 05:46:28;;;;;;;9.67;4.03;;;8.60;99.90;;;;;;5025245;28;20449;-69
2022/10/09 05:48:57;;;;;;;10.20;3.37;;;8.60;99.90;;;;;;5025540;28;20894;-69
2022/10/09 05:51:26;;;;;;;8.90;3.67;;;8.70;99.90;;;;;;5026030;28;20743;-69
2022/10/09 05:53:54;;;;;;;8.47;3.70;;;8.70;99.90;;;;;;5025302;28;20485;-69
2022/10/09 05:56:24;;;;;;;7.20;3.00;;;8.60;99.90;;;;;;5025038;28;20520;-67
2022/10/09 05:58:52;;;;;;;10.20;3.90;;;8.70;99.90;;;;;;5025460;28;20445;-67
2022/10/09 06:01:20;;;;;;;6.70;3.17;;;8.70;99.90;;;;;;5025374;28;20530;-67
2022/10/09 06:03:50;;;;;;;6.40;2.67;;;8.80;99.90;;;;;;5025084;28;20481;-67
2022/10/09 06:06:18;;;;;;;7.83;3.20;;;8.70;99.90;;;;;;5024936;28;20467;-68
2022/10/09 06:08:45;;;;;;;4.87;2.67;;;8.80;99.90;;;;;;5024671;28;20504;-68
2022/10/09 06:11:13;;;;;;;10.50;3.03;;;8.80;99.90;;;;;;5029952;28;20457;-68
2022/10/09 06:13:42;;;;;;;6.67;3.27;;;8.80;99.90;;;;;;5029781;28;20514;-68
2022/10/09 06:16:11;;;;;;;7.00;3.37;;;8.90;99.90;;;;;;5029812;28;20456;-68
2022/10/09 06:18:38;;;;;;;4.67;2.93;;;8.90;99.90;;;;;;5029785;28;20453;-68
2022/10/09 06:21:06;;;;;;;16.47;7.83;;;8.90;99.90;;;;;;5029864;28;20453;-68
2022/10/09 06:23:33;;;;;;;17.73;8.00;;;8.90;99.90;;;;;;5029834;28;20906;-68
2022/10/09 06:26:03;;;;;;;15.47;5.87;;;8.90;99.90;;;;;;5029794;28;20476;-68
2022/10/09 06:28:31;;;;;;;20.67;4.97;;;9.00;99.90;;;;;;5029343;28;20485;-68
2022/10/09 06:31:03;;;;;;;6.57;3.20;;;9.00;99.90;;;;;;5028430;28;20457;-68
2022/10/09 06:33:31;;;;;;;9.37;3.50;;;9.00;99.90;;;;;;5021691;28;20877;-68
2022/10/09 06:36:02;;;;;;;6.63;4.77;;;9.00;99.90;;;;;;5028198;28;20470;-68
2022/10/09 06:38:29;;;;;;;5.67;3.20;;;9.10;99.90;;;;;;5028519;28;20480;-68
2022/10/09 06:41:02;;;;;;;9.77;3.97;;;9.10;99.90;;;;;;5028597;28;20461;-68
2022/10/09 06:43:29;;;;;;;5.43;3.50;;;9.20;99.90;;;;;;5029174;28;20460;-69
2022/10/09 06:45:56;;;;;;;6.93;3.87;;;9.20;99.90;;;;;;5029141;28;20515;-68
2022/10/09 06:48:29;;;;;;;7.50;3.43;;;9.20;99.90;;;;;;5028062;28;20538;-67
2022/10/09 06:51:00;;;;;;;6.03;3.87;;;9.30;99.90;;;;;;5027893;28;20783;-67
2022/10/09 06:53:26;;;;;;;6.17;3.23;;;9.30;99.90;;;;;;5027699;28;20473;-68
2022/10/09 06:55:56;;;;;;;13.93;4.70;;;9.40;99.90;;;;;;5027793;28;20488;-68
2022/10/09 06:58:23;;;;;;;7.00;3.87;;;9.50;99.90;;;;;;5028164;28;20631;-68
2022/10/09 07:00:50;;;;;;;5.73;2.90;;;9.50;99.90;;;;;;5028426;28;20460;-68
2022/10/09 07:03:17;;;;;;;9.67;3.47;;;9.60;99.90;;;;;;5028115;28;20464;-68
2022/10/09 07:05:45;;;;;;;9.47;3.77;;;9.70;99.90;;;;;;5027368;28;20456;-68
2022/10/09 07:08:12;;;;;;;9.90;3.80;;;9.70;99.90;;;;;;5026540;28;20481;-68
2022/10/09 07:10:39;;;;;;;8.27;3.50;;;9.80;99.90;;;;;;5027836;28;20491;-68
2022/10/09 07:13:06;;;;;;;9.57;3.30;;;9.80;99.90;;;;;;5027627;28;20461;-68
2022/10/09 07:15:33;;;;;;;6.40;2.90;;;9.90;99.90;;;;;;5026149;28;20575;-68
2022/10/09 07:18:03;;;;;;;9.03;3.67;;;10.00;99.90;;;;;;5024711;28;20932;-68
2022/10/09 07:20:29;;;;;;;7.73;3.20;;;10.10;99.90;;;;;;5026432;28;20456;-68
2022/10/09 07:22:58;;;;;;;12.87;3.60;;;10.10;99.90;;;;;;5025275;28;20485;-69
2022/10/09 07:25:25;;;;;;;6.37;2.83;;;10.20;99.90;;;;;;5023306;28;20487;-69
2022/10/09 07:27:52;;;;;;;9.53;3.23;;;10.20;99.90;;;;;;5025890;28;20491;-69
2022/10/09 07:30:19;;;;;;;9.60;2.80;;;10.30;99.90;;;;;;5026219;28;20457;-69
2022/10/09 07:32:45;;;;;;;7.37;3.57;;;10.40;99.90;;;;;;5025297;28;20534;-69
2022/10/09 07:35:12;;;;;;;6.60;2.93;;;10.40;99.90;;;;;;5027017;28;20951;-69
2022/10/09 07:37:39;;;;;;;8.03;3.53;;;10.50;99.90;;;;;;5026077;28;20518;-69
2022/10/09 07:40:09;;;;;;;7.50;3.10;;;10.50;99.90;;;;;;5027360;28;20734;-69
2022/10/09 07:42:35;;;;;;;6.63;3.53;;;10.50;99.90;;;;;;5026160;28;20512;-69
2022/10/09 07:45:02;;;;;;;10.60;3.47;;;10.60;99.90;;;;;;5025490;28;20453;-67
2022/10/09 07:47:29;;;;;;;12.30;3.73;;;10.70;99.90;;;;;;5025493;28;20528;-68
2022/10/09 07:49:56;;;;;;;8.63;3.87;;;10.70;99.90;;;;;;5022310;28;20816;-68
2022/10/09 07:52:23;;;;;;;7.73;4.10;;;10.70;99.90;;;;;;5020628;28;20503;-68
2022/10/09 07:54:50;;;;;;;5.80;3.17;;;10.80;99.90;;;;;;5021842;28;20540;-68
2022/10/09 07:57:18;;;;;;;10.33;3.83;;;10.90;99.90;;;;;;5022165;28;20551;-68
2022/10/09 07:59:46;;;;;;;7.47;3.33;;;10.90;99.90;;;;;;5022037;28;20497;-69
2022/10/09 08:02:12;;;;;;;8.90;2.63;;;11.00;99.90;;;;;;5020830;28;20460;-69
2022/10/09 08:04:39;;;;;;;9.83;3.80;;;11.10;99.90;;;;;;5020453;28;20456;-69
2022/10/09 08:07:06;;;;;;;9.53;3.23;;;11.10;99.90;;;;;;5020010;28;20526;-69
2022/10/09 08:09:33;;;;;;;12.13;3.77;;;11.20;99.90;;;;;;5020060;28;20504;-69
2022/10/09 08:12:00;;;;;;;9.47;3.70;;;11.30;99.90;;;;;;5020270;28;20461;-70
2022/10/09 08:14:28;;;;;;;9.00;3.30;;;11.30;99.90;;;;;;5020697;28;20509;-70
2022/10/09 08:16:55;;;;;;;6.73;3.73;;;11.40;99.90;;;;;;5018965;28;20468;-70
2022/10/09 08:19:22;;;;;;;6.23;2.80;;;11.40;99.90;;;;;;5018880;28;20457;-69
2022/10/09 08:21:49;;;;;;;8.17;3.73;;;11.50;99.90;;;;;;5018772;28;20551;-69
2022/10/09 08:24:16;;;;;;;4.30;3.10;;;11.50;99.90;;;;;;5018972;28;20457;-69
2022/10/09 08:26:44;;;;;;;7.80;3.73;;;11.60;99.90;;;;;;5017647;28;20953;-70
2022/10/09 08:29:12;;;;;;;11.17;3.60;;;11.60;99.90;;;;;;5017342;28;20568;-68
2022/10/09 08:31:40;;;;;;;5.80;3.27;;;11.70;99.90;;;;;;5016968;28;20511;-69
2022/10/09 08:34:07;;;;;;;11.30;4.00;;;11.80;99.90;;;;;;5018138;28;20468;-69
2022/10/09 08:36:34;;;;;;;9.53;3.77;;;11.90;99.90;;;;;;5018363;28;20511;-69
2022/10/09 08:39:01;;;;;;;6.87;3.47;;;11.90;99.90;;;;;;5018356;28;20453;-69
2022/10/09 08:41:47;;;;;;;9.57;3.23;;;12.00;99.90;;;;;;5018032;28;20461;-69
2022/10/09 08:44:18;;;;;;;8.50;3.67;;;12.10;99.90;;;;;;5018059;28;20825;-69
2022/10/09 08:47:02;;;;;;;7.00;3.30;;;12.20;99.90;;;;;;5017912;28;20469;-69
2022/10/09 08:49:43;;;;;;;7.67;3.57;;;12.30;99.90;;;;;;5017808;28;20535;-69
2022/10/09 08:52:28;;;;;;;11.83;4.27;;;12.30;99.90;;;;;;5018114;28;20437;-69
2022/10/09 08:55:01;;;;;;;6.83;3.70;;;12.40;99.90;;;;;;5018641;28;20511;-69
2022/10/09 08:57:32;;;;;;;9.20;3.30;;;12.50;99.90;;;;;;5018453;28;20484;-69
2022/10/09 08:59:59;;;;;;;8.40;4.07;;;12.50;99.90;;;;;;5018116;28;20499;-69
2022/10/09 09:02:40;;;;;;;11.33;3.27;;;12.60;99.90;;;;;;5018131;28;20488;-69
2022/10/09 09:05:20;;;;;;;6.90;3.80;;;12.70;99.90;;;;;;5020369;28;20496;-68
2022/10/09 09:07:54;;;;;;;4.17;2.60;;;12.70;99.90;;;;;;5021026;28;20445;-70
2022/10/09 09:10:34;;;;;;;8.07;3.40;;;12.70;99.90;;;;;;5020861;28;20477;-69
2022/10/09 09:13:09;;;;;;;7.60;3.33;;;12.80;99.90;;;;;;5029701;28;20437;-69
2022/10/09 09:15:47;;;;;;;7.17;3.03;;;12.80;99.90;;;;;;5029934;28;20502;-69
2022/10/09 09:18:26;;;;;;;12.50;3.10;;;12.90;99.90;;;;;;5023139;28;20469;-69
2022/10/09 09:20:55;;;;;;;9.23;2.80;;;13.10;99.90;;;;;;5017395;28;20518;-69
2022/10/09 09:23:28;;;;;;;6.00;2.60;;;13.20;99.90;;;;;;5017762;28;20445;-70
2022/10/09 09:25:55;;;;;;;9.13;3.23;;;13.20;99.90;;;;;;5017747;28;20445;-69
2022/10/09 09:28:27;;;;;;;11.40;3.07;;;13.30;99.90;;;;;;5017877;28;20457;-68
2022/10/09 09:30:58;;;;;;;7.63;2.80;;;13.40;99.90;;;;;;5018147;28;20476;-69
2022/10/09 09:33:37;;;;;;;6.80;2.00;;;13.40;99.90;;;;;;5017382;28;20456;-70
2022/10/09 09:36:09;;;;;;;3.07;2.07;;;13.50;99.90;;;;;;5017502;28;20481;-69
2022/10/09 09:38:36;;;;;;;9.00;2.50;;;13.60;99.90;;;;;;5018155;28;20504;-68
2022/10/09 09:41:04;;;;;;;7.60;2.43;;;13.70;99.90;;;;;;5018207;28;20536;-68
2022/10/09 09:43:31;;;;;;;16.20;2.73;;;13.80;99.90;;;;;;5018576;28;20453;-69
2022/10/09 09:46:00;;;;;;;7.50;2.80;;;13.80;99.90;;;;;;5018980;28;20461;-70
2022/10/09 09:48:34;;;;;;;10.67;2.50;;;13.90;99.90;;;;;;5018738;28;20830;-68
2022/10/09 09:51:04;;;;;;;7.87;2.07;;;14.00;99.90;;;;;;5018166;28;20490;-68
2022/10/09 09:53:35;;;;;;;7.60;2.60;;;14.00;99.90;;;;;;5018516;28;20524;-68
2022/10/09 09:56:03;;;;;;;9.67;2.30;;;14.10;99.90;;;;;;5019250;28;20512;-69
2022/10/09 09:58:35;;;;;;;8.77;2.60;;;14.10;99.90;;;;;;5019708;28;20472;-69
2022/10/09 10:01:05;;;;;;;9.50;2.90;;;14.20;99.90;;;;;;5019447;28;20480;-69
2022/10/09 10:03:34;;;;;;;9.43;2.13;;;14.30;99.90;;;;;;5018813;28;20488;-69
2022/10/09 10:06:01;;;;;;;6.00;1.77;;;14.40;99.90;;;;;;5019642;28;20441;-69
2022/10/09 10:08:31;;;;;;;9.80;2.57;;;14.50;99.90;;;;;;5019716;28;20456;-69
2022/10/09 10:10:59;;;;;;;5.30;2.67;;;14.60;99.90;;;;;;5016164;28;20520;-69
2022/10/09 10:13:33;;;;;;;5.60;2.37;;;14.60;99.90;;;;;;5017547;28;20489;-69
2022/10/09 10:16:01;;;;;;;7.80;2.80;;;14.60;99.90;;;;;;5017369;28;20441;-69
2022/10/09 10:18:31;;;;;;;9.23;2.87;;;14.80;99.90;;;;;;5018718;28;20457;-69
2022/10/09 10:21:06;;;;;;;5.00;1.90;;;14.90;99.90;;;;;;5016986;28;20587;-69
2022/10/09 10:23:38;;;;;;;9.17;2.10;;;14.90;99.90;;;;;;5017432;28;20476;-69
2022/10/09 10:26:11;;;;;;;5.30;2.03;;;15.00;99.90;;;;;;5017618;28;20513;-69
2022/10/09 10:28:48;;;;;;;6.50;1.70;;;15.00;99.90;;;;;;5017326;28;20476;-69
2022/10/09 10:31:26;;;;;;;4.10;1.77;;;15.10;99.90;;;;;;5017557;28;20814;-68
2022/10/09 10:33:57;;;;;;;5.00;2.30;;;15.20;99.90;;;;;;5017920;28;20445;-69
2022/10/09 10:36:27;;;;;;;7.63;1.80;;;15.20;99.90;;;;;;5016919;28;20936;-69
2022/10/09 10:39:02;;;;;;;5.97;1.87;;;15.30;99.90;;;;;;5017580;28;20464;-69
2022/10/09 10:41:32;;;;;;;5.13;1.83;;;15.30;99.90;;;;;;5017893;28;20539;-68
2022/10/09 10:44:06;;;;;;;5.40;1.93;;;15.40;99.90;;;;;;5017908;28;20445;-68
2022/10/09 10:46:39;;;;;;;10.03;1.70;;;15.60;99.90;;;;;;5016826;28;20579;-69
2022/10/09 10:49:11;;;;;;;6.60;1.67;;;15.70;99.90;;;;;;5017436;28;20740;-69
2022/10/09 10:52:03;;;;;;;5.13;1.80;;;15.80;99.90;;;;;;5017954;28;20487;-68
2022/10/09 10:54:36;;;;;;;4.87;1.73;;;15.80;99.90;;;;;;5017689;28;20542;-69
2022/10/09 10:57:14;;;;;;;5.63;1.70;;;15.90;99.90;;;;;;5023750;28;20484;-69
2022/10/09 10:59:50;;;;;;;4.60;1.77;;;15.90;99.90;;;;;;5022538;28;20500;-69
2022/10/09 11:02:53;;;;;;;5.33;1.70;;;16.00;99.90;;;;;;5022553;28;20456;-68
2022/10/09 11:05:31;;;;;;;9.83;1.70;;;16.00;99.90;;;;;;5021769;28;20436;-69
2022/10/09 11:08:24;;;;;;;4.43;2.03;;;16.00;99.90;;;;;;5022370;28;20821;-69
2022/10/09 11:10:59;;;;;;;7.00;1.70;;;15.90;99.90;;;;;;5022202;28;21011;-69
2022/10/09 11:13:32;;;;;;;8.40;2.33;;;15.90;99.90;;;;;;5021605;28;20498;-68
2022/10/09 11:16:14;;;;;;;10.00;2.03;;;16.10;99.90;;;;;;5021513;28;20465;-68
2022/10/09 11:19:00;;;;;;;3.53;1.80;;;16.30;99.90;;;;;;5020698;28;20445;-69
2022/10/09 11:21:44;;;;;;;3.90;1.30;;;16.50;99.90;;;;;;5021358;28;20893;-69
2022/10/09 11:24:53;;;;;;;9.47;1.90;;;16.60;99.90;;;;;;5021318;28;20465;-69
2022/10/09 11:27:25;;;;;;;9.33;1.80;;;16.60;99.90;;;;;;4974113;28;20457;-69
2022/10/09 11:29:57;;;;;;;8.27;1.53;;;16.70;99.90;;;;;;5020637;28;20468;-69
2022/10/09 11:32:30;;;;;;;9.73;2.50;;;16.90;99.90;;;;;;5021279;28;20476;-69
2022/10/09 11:35:02;;;;;;;4.10;1.57;;;17.00;99.90;;;;;;5021249;28;20536;-69
2022/10/09 11:37:33;;;;;;;2.87;1.40;;;17.20;99.90;;;;;;5020644;28;20500;-68
2022/10/09 11:40:03;;;;;;;7.13;1.77;;;17.40;99.90;;;;;;5020298;28;20830;-68
2022/10/09 11:42:32;;;;;;;7.50;1.63;;;17.30;99.90;;;;;;5021017;28;20492;-69
2022/10/09 11:45:08;;;;;;;3.83;2.13;;;17.30;99.90;;;;;;5021165;28;20457;-69
2022/10/09 11:47:41;;;;;;;7.27;1.73;;;17.30;99.90;;;;;;5020531;28;20472;-69
2022/10/09 11:50:26;;;;;;;5.60;1.37;;;17.50;99.90;;;;;;5020331;28;20465;-69
2022/10/09 11:52:58;;;;;;;11.47;1.67;;;18.10;99.90;;;;;;5020967;28;20449;-69
2022/10/09 11:55:27;;;;;;;3.30;1.27;;;18.90;99.90;;;;;;5021426;28;20445;-69
2022/10/09 11:58:07;;;;;;;3.70;1.20;;;19.80;99.90;;;;;;5022672;28;20442;-68
2022/10/09 12:00:36;;;;;;;6.27;1.97;;;20.90;99.90;;;;;;5024784;28;20440;-69
2022/10/09 12:03:06;;;;;;;8.00;1.40;;;21.70;97.50;;;;;;5023775;28;20488;-68
2022/10/09 12:05:41;;;;;;;4.70;1.30;;;21.50;94.70;;;;;;5020499;28;20504;-68
2022/10/09 12:08:14;;;;;;;5.80;1.70;;;20.90;95.60;;;;;;5020479;28;20834;-68
2022/10/09 12:10:46;;;;;;;3.00;1.20;;;20.10;98.20;;;;;;5020240;28;20847;-69
2022/10/09 12:13:44;;;;;;;6.00;1.40;;;19.50;99.90;;;;;;5021537;28;20814;-68
2022/10/09 12:16:26;;;;;;;3.30;1.20;;;19.50;99.90;;;;;;5020296;28;20488;-69
2022/10/09 12:18:54;;;;;;;5.83;1.60;;;20.80;99.90;;;;;;5021822;28;20457;-69
2022/10/09 12:21:25;;;;;;;5.43;1.33;;;22.20;93.10;;;;;;5020198;28;20485;-69
2022/10/09 12:23:53;;;;;;;3.57;1.30;;;21.90;88.70;;;;;;5019798;28;20468;-69
2022/10/09 12:26:23;;;;;;;3.07;1.27;;;21.20;87.80;;;;;;5019689;28;20500;-70
2022/10/09 12:28:55;;;;;;;5.00;2.37;;;20.50;89.10;;;;;;5020731;28;20909;-69
2022/10/09 12:31:25;;;;;;;6.10;2.50;;;20.00;92.10;;;;;;5020331;28;20850;-68
2022/10/09 12:33:55;;;;;;;5.93;1.30;;;19.50;92.50;;;;;;5021477;28;20536;-70
2022/10/09 12:36:25;;;;;;;6.37;2.23;;;19.10;90.70;;;;;;5020952;28;20513;-70
2022/10/09 12:38:52;;;;;;;5.80;1.60;;;19.10;92.10;;;;;;5020425;28;20484;-69
2022/10/09 12:41:23;;;;;;;4.00;1.30;;;19.90;95.10;;;;;;5019022;28;20453;-69
2022/10/09 12:43:54;;;;;;;6.17;1.23;;;21.20;91.70;;;;;;5018571;28;20437;-69
2022/10/09 12:46:29;;;;;;;2.20;1.07;;;22.40;87.00;;;;;;5019933;28;20441;-69
2022/10/09 12:48:57;;;;;;;3.20;1.33;;;23.50;81.10;;;;;;5022142;28;20456;-68
2022/10/09 12:51:27;;;;;;;4.40;1.50;;;24.30;71.30;;;;;;5022733;28;20540;-70
2022/10/09 12:53:54;;;;;;;6.03;1.40;;;24.50;62.80;;;;;;5019588;28;20465;-70
2022/10/09 12:56:25;;;;;;;4.43;1.37;;;24.30;61.80;;;;;;5019731;28;21054;-69
2022/10/09 12:58:55;;;;;;;6.63;1.67;;;23.70;60.40;;;;;;5019777;28;20499;-69
2022/10/09 13:01:23;;;;;;;3.97;1.57;;;23.20;62.20;;;;;;5020814;28;20489;-69
2022/10/09 13:03:55;;;;;;;5.00;1.60;;;22.90;63.20;;;;;;5020150;28;20453;-69
2022/10/09 13:06:24;;;;;;;6.90;1.83;;;22.70;65.00;;;;;;5020605;28;20465;-69